Gaslog Saratoga — ZCEN3 — position and weather

sailwx.info

Track history (hours):
 
Tides and Currents Weather Stations Pressure Air Temp Water Temp Dewpoint Dewpoint Depression Visibility Wind Speed Wind Dir Waves Ship Positions

Gaslog Saratoga

Last reported at 2018-Feb-12 12:07 UTC. Time now 2018-Feb-24 22:01 UTC.
Position N 18°54' E 118°31'.
Warning: this ship's position is 12 days out of date.

Length 285 m; draft 9 m.

Type: Ship (hazmat cat C). MMSI: 310696000.

Date/timePositionNaut miles runAvg speedWind from/ knotsBaromVisibWave heightAir tempDewpointWater temp
2018-Feb-12 12:07N 18°54' E 118°31'215.0
2018-Feb-12 11:58N 18°55' E 118°33'1015.1
2018-Feb-12 11:17N 19°02' E 118°41'1515.0
2018-Feb-12 10:16N 19°12' E 118°54'515.1
2018-Feb-12 09:57N 19°15' E 118°58'4514.7
2018-Feb-12 06:54N 19°43' E 119°35'915.0
2018-Feb-12 06:18N 19°48' E 119°42'29213.8
2018-Feb-11 09:07N 23°38' E 122°57'214.0
2018-Feb-11 09:00N 23°39' E 122°58'714.2
2018-Feb-11 08:31N 23°45' E 123°01'713.9
2018-Feb-11 08:00N 23°51' E 123°05'714.3
2018-Feb-11 07:30N 23°58' E 123°08'714.2
2018-Feb-11 07:00N 24°04' E 123°12'713.8
2018-Feb-11 06:30N 24°10' E 123°15'713.7
2018-Feb-11 06:01N 24°17' E 123°18'713.9
2018-Feb-11 05:30N 24°22' E 123°23'714.0
2018-Feb-11 05:00N 24°27' E 123°28'714.0
2018-Feb-11 04:30N 24°33' E 123°33'714.1
2018-Feb-11 04:00N 24°38' E 123°38'714.0
2018-Feb-11 03:31N 24°43' E 123°43'  
Track history (hours):
 
Tides and Currents Weather Stations Pressure Air Temp Water Temp Dewpoint Dewpoint Depression Visibility Wind Speed Wind Dir Waves Ship Positions

Gaslog Saratoga

Last reported at 2018-Feb-12 12:07 UTC. Time now 2018-Feb-24 22:01 UTC.
Position N 18°54' E 118°31'.
Warning: this ship's position is 12 days out of date.

Length 285 m; draft 9 m.

Type: Ship (hazmat cat C). MMSI: 310696000.

Date/timePositionNaut miles runAvg speedWind from/ knotsBaromVisibWave heightAir tempDewpointWater temp
2018-Feb-12 12:07N 18°54' E 118°31'215.0
2018-Feb-12 11:58N 18°55' E 118°33'1015.1
2018-Feb-12 11:17N 19°02' E 118°41'1515.0
2018-Feb-12 10:16N 19°12' E 118°54'515.1
2018-Feb-12 09:57N 19°15' E 118°58'4514.7
2018-Feb-12 06:54N 19°43' E 119°35'915.0
2018-Feb-12 06:18N 19°48' E 119°42'29213.8
2018-Feb-11 09:07N 23°38' E 122°57'214.0
2018-Feb-11 09:00N 23°39' E 122°58'714.2
2018-Feb-11 08:31N 23°45' E 123°01'713.9
2018-Feb-11 08:00N 23°51' E 123°05'714.3
2018-Feb-11 07:30N 23°58' E 123°08'714.2
2018-Feb-11 07:00N 24°04' E 123°12'713.8
2018-Feb-11 06:30N 24°10' E 123°15'713.7
2018-Feb-11 06:01N 24°17' E 123°18'713.9
2018-Feb-11 05:30N 24°22' E 123°23'714.0
2018-Feb-11 05:00N 24°27' E 123°28'714.0
2018-Feb-11 04:30N 24°33' E 123°33'714.1
2018-Feb-11 04:00N 24°38' E 123°38'714.0
2018-Feb-11 03:31N 24°43' E 123°43'  

Dump ship's entire track history